OUL weather

Oulu Airport
Oulu / Oulunsalo, Oulu, Finland

Public forecast

Using degrees Celsius for public forecast. Weather courtesy of forecast.io.

METAR (pilot weather report)

Retrieved 2019/05/19 16:20 UTC (30 minutes ago):

EFOU 191620Z AUTO 10007KT 060V140 CAVOK 25/07 Q1015

TAF (pilot weather forecast)

Retrieved 2019/05/19 15:42 UTC (1 hour ago):

TAF EFOU 191427Z 1915/2015 10006KT CAVOK TEMPO 2010/2015 SHRA SCT025CB